Time;durP1;ratioP1;P1;durP2;ratioP2;P2;SDS_P1;SDS_P2;PMS_P1;PMS_P2;Temp;Humidity;BMP_temperature;BMP_pressure;BME280_temperature;BME280_humidity;BME280_pressure;Samples;Min_cycle;Max_cycle;Signal;HPM_P1;HPM_P2
2022/12/14 00:01:00;;;;;;;12.57;9.30;;;;;;;;;;6146296;23;20607;-80
2022/12/14 00:03:25;;;;;;;18.38;10.57;;;;;;;;;;6146217;23;20160;-82
2022/12/14 00:05:51;;;;;;;15.30;10.30;;;;;;;;;;6145478;23;20758;-80
2022/12/14 00:08:17;;;;;;;18.52;10.52;;;;;;;;;;6145666;23;20565;-80
2022/12/14 00:10:44;;;;;;;15.77;11.13;;;;;;;;;;6145903;23;20160;-82
2022/12/14 00:13:13;;;;;;;14.50;10.80;;;;;;;;;;6146756;23;20169;-81
2022/12/14 00:15:39;;;;;;;15.23;11.20;;;;;;;;;;6141866;23;20171;-81
2022/12/14 00:18:05;;;;;;;21.57;11.17;;;;;;;;;;6144097;23;20152;-81
2022/12/14 00:20:32;;;;;;;14.80;10.30;;;;;;;;;;6147409;23;20392;-81
2022/12/14 00:22:58;;;;;;;15.90;8.43;;;;;;;;;;6145589;23;20518;-81
2022/12/14 00:25:24;;;;;;;15.30;10.60;;;;;;;;;;6148086;23;20157;-82
2022/12/14 00:27:50;;;;;;;15.82;10.80;;;;;;;;;;6143448;23;20366;-79
2022/12/14 00:30:18;;;;;;;13.85;9.73;;;;;;;;;;6147603;23;20590;-81
2022/12/14 00:32:44;;;;;;;12.80;10.05;;;;;;;;;;6141859;23;20207;-81
2022/12/14 00:35:11;;;;;;;17.98;10.52;;;;;;;;;;6137555;23;20149;-81
2022/12/14 00:37:38;;;;;;;13.02;8.60;;;;;;;;;;6147287;23;20236;-81
2022/12/14 00:40:05;;;;;;;11.15;9.00;;;;;;;;;;6144606;23;20153;-81
2022/12/14 00:42:32;;;;;;;12.55;9.65;;;;;;;;;;6147950;23;20207;-81
2022/12/14 00:44:58;;;;;;;22.75;11.07;;;;;;;;;;6144312;23;20184;-81
2022/12/14 00:47:24;;;;;;;17.33;9.90;;;;;;;;;;6147354;23;20788;-81
2022/12/14 00:49:50;;;;;;;16.77;10.88;;;;;;;;;;6144357;23;20836;-81
2022/12/14 00:52:16;;;;;;;14.13;10.17;;;;;;;;;;6147821;23;20200;-79
2022/12/14 00:54:42;;;;;;;11.35;9.55;;;;;;;;;;6142874;23;20406;-82
2022/12/14 00:57:08;;;;;;;11.18;7.10;;;;;;;;;;6148391;23;20168;-81
2022/12/14 00:59:34;;;;;;;9.25;8.35;;;;;;;;;;6145249;23;20149;-82
2022/12/14 01:02:00;;;;;;;10.55;8.80;;;;;;;;;;6149479;23;20149;-81
2022/12/14 01:04:28;;;;;;;9.10;7.23;;;;;;;;;;6146594;23;20157;-81
2022/12/14 01:06:54;;;;;;;12.90;8.57;;;;;;;;;;6152605;23;20392;-81
2022/12/14 01:09:22;;;;;;;10.83;9.13;;;;;;;;;;6163917;23;20145;-80
2022/12/14 01:11:48;;;;;;;11.35;8.65;;;;;;;;;;6165539;23;20387;-82
2022/12/14 01:14:15;;;;;;;16.88;9.75;;;;;;;;;;6148312;23;20148;-82
2022/12/14 01:16:41;;;;;;;10.60;7.85;;;;;;;;;;6151576;23;20147;-82
2022/12/14 01:19:07;;;;;;;13.90;9.97;;;;;;;;;;6146056;23;20180;-81
2022/12/14 01:21:40;;;;;;;13.82;8.98;;;;;;;;;;6147625;23;20373;-81
2022/12/14 01:24:07;;;;;;;14.07;8.95;;;;;;;;;;6117387;23;20541;-80
2022/12/14 01:26:36;;;;;;;9.13;7.25;;;;;;;;;;6142958;23;20635;-80
2022/12/14 01:29:03;;;;;;;9.30;8.05;;;;;;;;;;6146820;23;20618;-80
2022/12/14 01:31:30;;;;;;;12.48;8.93;;;;;;;;;;6142822;23;20164;-80
2022/12/14 01:33:56;;;;;;;11.50;8.95;;;;;;;;;;6147553;23;20663;-79
2022/12/14 01:36:24;;;;;;;13.43;8.75;;;;;;;;;;6142981;23;20152;-79
2022/12/14 01:38:54;;;;;;;10.05;9.05;;;;;;;;;;6146665;23;20180;-81
2022/12/14 01:41:55;;;;;;;12.18;8.27;;;;;;;;;;6143082;23;20160;-80
2022/12/14 01:44:21;;;;;;;9.15;8.32;;;;;;;;;;6027896;23;20195;-80
2022/12/14 01:46:53;;;;;;;12.13;7.67;;;;;;;;;;6118459;23;20200;-79
2022/12/14 01:49:22;;;;;;;13.98;8.75;;;;;;;;;;6146959;23;20450;-80
2022/12/14 01:51:54;;;;;;;9.98;8.65;;;;;;;;;;6143334;23;20160;-82
2022/12/14 01:54:21;;;;;;;13.23;9.50;;;;;;;;;;6146703;23;20129;-79
2022/12/14 01:56:48;;;;;;;10.25;8.23;;;;;;;;;;6142983;23;20168;-79
2022/12/14 01:59:17;;;;;;;12.80;10.00;;;;;;;;;;6146175;23;20172;-80
2022/12/14 02:01:44;;;;;;;13.32;8.35;;;;;;;;;;6143789;23;20187;-80
2022/12/14 02:04:11;;;;;;;14.20;8.68;;;;;;;;;;6147896;23;20152;-80
2022/12/14 02:06:42;;;;;;;13.65;9.32;;;;;;;;;;6143484;23;20263;-80
2022/12/14 02:09:10;;;;;;;12.35;7.50;;;;;;;;;;6147240;23;20157;-80
2022/12/14 02:11:42;;;;;;;11.82;8.73;;;;;;;;;;6142681;23;20195;-81
2022/12/14 02:14:08;;;;;;;15.02;9.10;;;;;;;;;;6144279;23;20190;-80
2022/12/14 02:16:34;;;;;;;13.45;8.27;;;;;;;;;;6142244;23;20268;-81
2022/12/14 02:19:00;;;;;;;7.53;6.60;;;;;;;;;;6146471;23;20184;-81
2022/12/14 02:21:45;;;;;;;7.50;6.80;;;;;;;;;;6141404;23;20172;-81
2022/12/14 02:24:23;;;;;;;9.60;7.50;;;;;;;;;;6147672;23;20401;-81
2022/12/14 02:27:27;;;;;;;8.07;7.28;;;;;;;;;;6148465;23;20431;-80
2022/12/14 02:29:58;;;;;;;6.90;6.03;;;;;;;;;;6027200;23;20155;-80
2022/12/14 02:32:42;;;;;;;8.13;7.32;;;;;;;;;;6031235;23;20171;-81
2022/12/14 02:35:08;;;;;;;8.15;5.90;;;;;;;;;;6110638;23;20168;-81
2022/12/14 02:37:38;;;;;;;9.53;7.03;;;;;;;;;;6146986;23;20121;-82
2022/12/14 02:40:14;;;;;;;8.95;6.20;;;;;;;;;;6142469;23;20395;-81
2022/12/14 02:42:45;;;;;;;11.07;6.13;;;;;;;;;;6146658;23;20129;-82
2022/12/14 02:45:21;;;;;;;7.95;6.82;;;;;;;;;;6142736;23;20161;-81
2022/12/14 02:47:54;;;;;;;7.50;6.80;;;;;;;;;;6145731;23;20195;-81
2022/12/14 02:50:23;;;;;;;6.85;6.00;;;;;;;;;;6143040;23;20157;-83
2022/12/14 02:52:49;;;;;;;6.60;6.07;;;;;;;;;;6145882;23;20833;-81
2022/12/14 02:55:21;;;;;;;7.40;6.70;;;;;;;;;;6142538;23;20176;-81
2022/12/14 02:57:53;;;;;;;8.93;6.90;;;;;;;;;;6146359;23;20342;-81
2022/12/14 03:00:20;;;;;;;7.50;6.35;;;;;;;;;;6142824;23;20204;-81
2022/12/14 03:02:47;;;;;;;9.23;6.82;;;;;;;;;;6145979;23;20259;-82
2022/12/14 03:05:13;;;;;;;7.88;6.05;;;;;;;;;;6142697;23;20523;-81
2022/12/14 03:07:59;;;;;;;10.77;7.10;;;;;;;;;;6146131;23;20493;-81
2022/12/14 03:10:25;;;;;;;7.20;6.50;;;;;;;;;;6142772;23;20187;-82
2022/12/14 03:12:55;;;;;;;12.83;5.87;;;;;;;;;;6144317;23;20172;-81
2022/12/14 03:15:23;;;;;;;6.50;5.72;;;;;;;;;;6138636;23;20900;-81
2022/12/14 03:17:51;;;;;;;8.05;5.93;;;;;;;;;;6145834;23;20223;-81
2022/12/14 03:20:23;;;;;;;6.82;5.75;;;;;;;;;;6143126;23;20152;-81
2022/12/14 03:22:58;;;;;;;12.30;6.63;;;;;;;;;;6145901;23;20187;-80
2022/12/14 03:25:30;;;;;;;6.75;5.45;;;;;;;;;;6144707;23;20183;-81
2022/12/14 03:28:02;;;;;;;6.72;6.13;;;;;;;;;;6149921;23;20200;-81
2022/12/14 03:30:29;;;;;;;6.07;5.57;;;;;;;;;;6145703;23;20156;-80
2022/12/14 03:33:02;;;;;;;8.20;5.82;;;;;;;;;;6147102;23;20180;-80
2022/12/14 03:35:29;;;;;;;8.18;6.38;;;;;;;;;;6143661;23;20152;-80
2022/12/14 03:38:02;;;;;;;6.45;5.90;;;;;;;;;;6146582;23;20156;-81
2022/12/14 03:40:33;;;;;;;6.25;5.40;;;;;;;;;;6143132;23;20207;-80
2022/12/14 03:43:08;;;;;;;6.80;6.10;;;;;;;;;;6146529;23;20225;-80
2022/12/14 03:45:44;;;;;;;8.05;7.18;;;;;;;;;;6143635;23;20152;-81
2022/12/14 03:48:30;;;;;;;9.80;7.18;;;;;;;;;;6146576;23;20141;-81
2022/12/14 03:51:05;;;;;;;7.57;6.35;;;;;;;;;;6143466;23;20149;-82
2022/12/14 03:53:45;;;;;;;9.75;7.35;;;;;;;;;;6146116;23;20606;-81
2022/12/14 03:56:19;;;;;;;6.85;6.25;;;;;;;;;;6143112;23;20822;-79
2022/12/14 03:58:48;;;;;;;10.73;8.20;;;;;;;;;;6146326;23;20183;-79
2022/12/14 04:01:47;;;;;;;7.07;5.53;;;;;;;;;;6143252;23;20228;-80
2022/12/14 04:04:19;;;;;;;7.85;6.47;;;;;;;;;;6081848;23;20156;-81
2022/12/14 04:06:59;;;;;;;7.95;7.15;;;;;;;;;;6140330;23;20187;-81
2022/12/14 04:09:31;;;;;;;8.45;6.90;;;;;;;;;;6144634;23;20478;-80
2022/12/14 04:20:31;;;;;;;10.63;6.53;;;;;;;;;;6146120;23;20171;-81
2022/12/14 04:23:02;;;;;;;7.63;6.93;;;;;;;;;;6148874;23;20137;-83
2022/12/14 04:31:10;;;;;;;12.25;7.65;;;;;;;;;;6149447;23;20211;-82
2022/12/14 04:33:47;;;;;;;8.48;7.63;;;;;;;;;;6157470;23;20184;-82
2022/12/14 04:36:23;;;;;;;7.63;6.93;;;;;;;;;;6164926;23;20148;-84
2022/12/14 04:41:55;;;;;;;7.05;6.35;;;;;;;;;;6163017;23;20254;-83
2022/12/14 04:44:25;;;;;;;7.53;6.85;;;;;;;;;;6171274;23;20153;-83
2022/12/14 04:46:52;;;;;;;10.10;6.25;;;;;;;;;;6163869;23;20590;-84
2022/12/14 04:49:36;;;;;;;7.10;6.07;;;;;;;;;;6157827;23;20156;-83
2022/12/14 04:52:11;;;;;;;6.68;5.97;;;;;;;;;;6152363;23;20187;-83
2022/12/14 04:54:37;;;;;;;9.32;7.05;;;;;;;;;;6153590;23;20180;-84
2022/12/14 04:57:06;;;;;;;12.47;7.23;;;;;;;;;;6148711;23;20224;-83
2022/12/14 04:59:33;;;;;;;8.35;7.05;;;;;;;;;;6153491;23;20463;-84
2022/12/14 05:02:15;;;;;;;10.85;6.20;;;;;;;;;;6147841;23;20153;-84
2022/12/14 05:04:53;;;;;;;8.88;6.95;;;;;;;;;;6155362;23;20133;-84
2022/12/14 05:07:22;;;;;;;10.70;7.13;;;;;;;;;;6156053;23;20656;-84
2022/12/14 05:09:48;;;;;;;6.97;5.40;;;;;;;;;;6157197;23;20201;-83
2022/12/14 05:12:20;;;;;;;8.07;6.60;;;;;;;;;;6127315;23;20157;-83
2022/12/14 05:14:49;;;;;;;11.75;6.65;;;;;;;;;;6151348;23;20425;-83
2022/12/14 05:17:15;;;;;;;9.50;7.05;;;;;;;;;;6143342;23;20460;-80
2022/12/14 05:19:48;;;;;;;6.90;6.30;;;;;;;;;;6145538;23;20148;-77
2022/12/14 05:22:14;;;;;;;7.78;7.03;;;;;;;;;;6142769;23;20473;-79
2022/12/14 05:24:40;;;;;;;12.63;6.85;;;;;;;;;;6147284;23;20180;-81
2022/12/14 05:27:06;;;;;;;6.50;5.87;;;;;;;;;;6142867;23;20152;-81
2022/12/14 05:29:32;;;;;;;11.77;6.47;;;;;;;;;;6146765;23;20666;-81
2022/12/14 05:31:58;;;;;;;8.45;6.95;;;;;;;;;;6143381;23;20292;-82
2022/12/14 05:34:24;;;;;;;10.17;6.87;;;;;;;;;;6147309;23;20255;-81
2022/12/14 05:36:50;;;;;;;10.25;6.93;;;;;;;;;;6143641;23;20438;-81
2022/12/14 05:39:16;;;;;;;8.47;7.10;;;;;;;;;;6144706;23;20180;-81
2022/12/14 05:41:42;;;;;;;6.25;5.65;;;;;;;;;;6144824;23;20434;-82
2022/12/14 05:44:09;;;;;;;8.32;7.43;;;;;;;;;;6143956;23;20184;-80
2022/12/14 05:46:35;;;;;;;8.98;7.95;;;;;;;;;;6144138;23;20834;-81
2022/12/14 05:49:01;;;;;;;8.05;7.45;;;;;;;;;;6144422;23;20187;-83
2022/12/14 05:51:27;;;;;;;7.68;5.68;;;;;;;;;;6145225;23;20148;-81
2022/12/14 05:53:53;;;;;;;6.13;5.72;;;;;;;;;;6141855;23;20161;-81
2022/12/14 05:56:19;;;;;;;9.13;7.60;;;;;;;;;;6146281;23;20422;-79
2022/12/14 05:58:48;;;;;;;9.15;6.30;;;;;;;;;;6115415;23;20403;-80
2022/12/14 06:01:14;;;;;;;7.35;6.40;;;;;;;;;;6146554;23;20236;-81
2022/12/14 06:03:40;;;;;;;12.10;7.20;;;;;;;;;;6142601;23;20176;-81
2022/12/14 06:06:07;;;;;;;7.60;6.93;;;;;;;;;;6148437;23;20411;-80
2022/12/14 06:08:35;;;;;;;6.35;5.80;;;;;;;;;;6145254;23;20416;-80
2022/12/14 06:11:02;;;;;;;10.48;6.60;;;;;;;;;;6145752;23;20149;-80
2022/12/14 06:13:28;;;;;;;9.40;6.40;;;;;;;;;;6139063;23;20157;-79
2022/12/14 06:15:54;;;;;;;10.57;7.43;;;;;;;;;;6144061;23;20203;-80
2022/12/14 06:18:23;;;;;;;7.30;6.03;;;;;;;;;;6141859;23;20156;-80
2022/12/14 06:20:49;;;;;;;7.60;6.10;;;;;;;;;;6146171;23;20372;-79
2022/12/14 06:23:15;;;;;;;7.13;6.53;;;;;;;;;;6143962;23;20181;-79
2022/12/14 06:25:41;;;;;;;8.73;5.03;;;;;;;;;;6146587;23;20184;-79
2022/12/14 06:28:07;;;;;;;8.47;6.67;;;;;;;;;;6142789;23;20365;-80
2022/12/14 06:30:33;;;;;;;12.87;7.37;;;;;;;;;;6139231;23;20378;-80
2022/12/14 06:32:59;;;;;;;7.97;7.10;;;;;;;;;;6146231;23;20483;-80
2022/12/14 06:35:25;;;;;;;9.25;6.22;;;;;;;;;;6143222;23;20215;-78
2022/12/14 06:37:51;;;;;;;10.70;7.13;;;;;;;;;;6146332;23;20152;-80
2022/12/14 06:40:18;;;;;;;7.07;6.40;;;;;;;;;;6142830;23;20660;-79
2022/12/14 06:42:46;;;;;;;8.38;5.65;;;;;;;;;;6145560;23;20582;-80
2022/12/14 06:45:12;;;;;;;6.70;5.63;;;;;;;;;;6142689;23;20665;-79
2022/12/14 06:47:39;;;;;;;7.68;7.03;;;;;;;;;;6144755;23;20184;-79
2022/12/14 06:50:05;;;;;;;6.35;5.70;;;;;;;;;;6115785;23;20164;-79
2022/12/14 06:52:31;;;;;;;6.50;5.70;;;;;;;;;;6145249;23;20160;-80
2022/12/14 06:54:57;;;;;;;7.00;5.65;;;;;;;;;;6142101;23;20203;-79
2022/12/14 06:57:23;;;;;;;9.18;6.57;;;;;;;;;;6146275;23;20609;-79
2022/12/14 06:59:49;;;;;;;6.00;5.50;;;;;;;;;;6141216;23;20236;-79
2022/12/14 07:02:15;;;;;;;7.87;7.00;;;;;;;;;;6145979;23;20455;-78
2022/12/14 07:04:41;;;;;;;17.60;6.20;;;;;;;;;;6140028;23;20374;-78
2022/12/14 07:07:07;;;;;;;8.52;7.53;;;;;;;;;;6143942;23;20422;-78
2022/12/14 07:09:33;;;;;;;6.90;6.20;;;;;;;;;;6141506;23;20149;-78
2022/12/14 07:11:59;;;;;;;11.27;8.97;;;;;;;;;;6145986;23;20133;-78
2022/12/14 07:14:26;;;;;;;8.10;6.13;;;;;;;;;;6138102;23;20463;-78
2022/12/14 07:16:52;;;;;;;9.18;6.45;;;;;;;;;;6145980;23;20449;-78
2022/12/14 07:19:18;;;;;;;8.38;6.72;;;;;;;;;;6137987;23;20477;-80
2022/12/14 07:21:44;;;;;;;9.85;6.95;;;;;;;;;;6145892;23;20145;-78
2022/12/14 07:24:10;;;;;;;6.77;5.37;;;;;;;;;;6142443;23;20231;-79
2022/12/14 07:26:36;;;;;;;11.50;6.47;;;;;;;;;;6119768;23;20749;-78
2022/12/14 07:29:10;;;;;;;6.07;5.47;;;;;;;;;;6141722;23;20160;-78
2022/12/14 07:31:36;;;;;;;7.85;7.15;;;;;;;;;;6143663;23;20173;-78
2022/12/14 07:34:02;;;;;;;8.20;7.30;;;;;;;;;;6141849;23;20625;-79
2022/12/14 07:36:29;;;;;;;8.55;7.13;;;;;;;;;;6145770;23;20735;-79
2022/12/14 07:38:59;;;;;;;9.15;6.97;;;;;;;;;;6142235;23;20156;-80
2022/12/14 07:41:26;;;;;;;8.20;6.68;;;;;;;;;;6144236;23;20164;-78
2022/12/14 07:43:53;;;;;;;6.90;6.20;;;;;;;;;;6142751;23;20458;-80
2022/12/14 07:46:21;;;;;;;6.70;6.05;;;;;;;;;;6142685;23;20558;-79
2022/12/14 07:48:49;;;;;;;6.90;6.05;;;;;;;;;;6144086;23;20145;-78
2022/12/14 07:51:16;;;;;;;7.05;5.72;;;;;;;;;;6142925;23;20164;-78
2022/12/14 07:53:43;;;;;;;9.32;7.65;;;;;;;;;;6154309;23;20165;-77
2022/12/14 07:56:11;;;;;;;7.47;5.82;;;;;;;;;;6153232;23;20159;-77
2022/12/14 07:58:37;;;;;;;10.38;6.80;;;;;;;;;;6146997;23;20156;-79
2022/12/14 08:01:11;;;;;;;7.45;6.72;;;;;;;;;;6143490;23;20270;-77
2022/12/14 08:03:37;;;;;;;8.00;7.20;;;;;;;;;;6146775;23;20171;-78
2022/12/14 08:06:04;;;;;;;6.93;5.32;;;;;;;;;;6141397;23;20750;-77
2022/12/14 08:08:30;;;;;;;9.73;6.43;;;;;;;;;;6147690;23;20156;-78
2022/12/14 08:10:56;;;;;;;5.33;4.83;;;;;;;;;;6142869;23;20164;-77
2022/12/14 08:13:22;;;;;;;6.80;5.50;;;;;;;;;;6145054;23;20354;-77
2022/12/14 08:15:49;;;;;;;4.85;4.53;;;;;;;;;;6142846;23;20623;-78
2022/12/14 08:18:15;;;;;;;12.90;6.38;;;;;;;;;;6151076;23;20153;-78
2022/12/14 08:20:41;;;;;;;13.35;7.90;;;;;;;;;;6154546;23;20235;-77
2022/12/14 08:23:10;;;;;;;6.35;5.30;;;;;;;;;;6159879;23;20173;-77
2022/12/14 08:25:36;;;;;;;5.20;4.80;;;;;;;;;;6151913;23;20614;-77
2022/12/14 08:28:02;;;;;;;7.33;6.63;;;;;;;;;;6148729;23;20265;-77
2022/12/14 08:30:28;;;;;;;11.98;7.80;;;;;;;;;;6144870;23;20347;-76
2022/12/14 08:32:57;;;;;;;7.00;5.90;;;;;;;;;;6148163;23;20568;-77
2022/12/14 08:35:23;;;;;;;5.85;4.90;;;;;;;;;;6142896;23;20192;-77
2022/12/14 08:37:51;;;;;;;12.83;6.00;;;;;;;;;;6146932;23;20141;-78
2022/12/14 08:40:17;;;;;;;5.75;5.35;;;;;;;;;;6143445;23;20755;-77
2022/12/14 08:42:43;;;;;;;9.23;6.33;;;;;;;;;;6147248;23;20208;-79
2022/12/14 08:45:09;;;;;;;5.80;5.30;;;;;;;;;;6143545;23;20368;-78
2022/12/14 08:47:35;;;;;;;10.38;5.85;;;;;;;;;;6144988;23;20439;-78
2022/12/14 08:50:01;;;;;;;9.43;5.73;;;;;;;;;;6141459;23;20595;-79
2022/12/14 08:52:27;;;;;;;12.02;6.95;;;;;;;;;;6145499;23;20359;-77
2022/12/14 08:54:53;;;;;;;13.70;7.10;;;;;;;;;;6142550;23;20167;-79
2022/12/14 08:57:19;;;;;;;6.27;5.67;;;;;;;;;;6146587;23;20917;-79
2022/12/14 08:59:45;;;;;;;7.03;5.77;;;;;;;;;;6140547;23;20425;-78
2022/12/14 09:02:12;;;;;;;8.10;6.10;;;;;;;;;;6144675;23;20420;-78
2022/12/14 09:04:38;;;;;;;6.78;6.35;;;;;;;;;;6141381;23;20392;-78
2022/12/14 09:07:04;;;;;;;7.80;6.30;;;;;;;;;;6146476;23;20198;-79
2022/12/14 09:09:30;;;;;;;8.82;5.80;;;;;;;;;;6144339;23;20363;-78
2022/12/14 09:11:56;;;;;;;6.30;5.88;;;;;;;;;;6144532;23;20505;-78
2022/12/14 09:14:22;;;;;;;6.97;6.32;;;;;;;;;;6139467;23;20157;-78
2022/12/14 09:16:48;;;;;;;8.87;6.03;;;;;;;;;;6144325;23;20851;-79
2022/12/14 09:19:14;;;;;;;7.00;5.87;;;;;;;;;;6140592;23;20388;-77
2022/12/14 09:21:40;;;;;;;9.43;5.80;;;;;;;;;;6143133;23;20861;-77
2022/12/14 09:24:06;;;;;;;10.53;6.53;;;;;;;;;;6140471;23;20415;-76
2022/12/14 09:26:32;;;;;;;6.35;5.60;;;;;;;;;;6142924;23;20351;-77
2022/12/14 09:28:58;;;;;;;10.07;7.38;;;;;;;;;;6146199;23;20153;-77
2022/12/14 09:31:25;;;;;;;7.95;7.15;;;;;;;;;;6142076;23;20184;-78
2022/12/14 09:33:52;;;;;;;10.90;7.13;;;;;;;;;;6145406;23;20322;-78
2022/12/14 09:36:19;;;;;;;8.02;7.10;;;;;;;;;;6141215;23;20487;-77
2022/12/14 09:38:45;;;;;;;8.15;6.90;;;;;;;;;;6146104;23;20157;-78
2022/12/14 09:41:21;;;;;;;9.18;6.55;;;;;;;;;;6140979;23;20165;-80
2022/12/14 09:43:51;;;;;;;9.20;7.05;;;;;;;;;;6144035;23;20172;-78
2022/12/14 09:46:31;;;;;;;11.20;7.30;;;;;;;;;;6142464;23;20188;-78
2022/12/14 09:48:57;;;;;;;9.70;6.90;;;;;;;;;;6146467;23;20613;-77
2022/12/14 09:51:29;;;;;;;10.73;6.95;;;;;;;;;;6142113;23;20231;-79
2022/12/14 09:53:59;;;;;;;8.02;6.72;;;;;;;;;;6146376;23;20172;-79
2022/12/14 09:56:26;;;;;;;19.08;6.55;;;;;;;;;;6143006;23;20149;-78
2022/12/14 09:58:57;;;;;;;13.13;7.47;;;;;;;;;;6145072;23;20156;-78
2022/12/14 10:01:23;;;;;;;9.57;7.72;;;;;;;;;;6141542;23;20208;-78
2022/12/14 10:03:54;;;;;;;14.27;7.40;;;;;;;;;;6145114;23;20498;-79
2022/12/14 10:06:26;;;;;;;7.47;4.53;;;;;;;;;;6141579;23;20392;-78
2022/12/14 10:09:02;;;;;;;8.07;7.28;;;;;;;;;;6145002;23;20156;-76
2022/12/14 10:11:39;;;;;;;8.18;6.13;;;;;;;;;;6142225;23;20180;-78
2022/12/14 10:14:05;;;;;;;8.15;7.43;;;;;;;;;;6142277;23;20136;-78
2022/12/14 10:16:38;;;;;;;8.20;7.43;;;;;;;;;;6141342;23;20661;-80
2022/12/14 10:19:04;;;;;;;9.20;8.30;;;;;;;;;;6143537;23;20393;-78
2022/12/14 10:21:47;;;;;;;8.50;7.80;;;;;;;;;;6141440;23;20152;-80
2022/12/14 10:24:24;;;;;;;8.57;6.68;;;;;;;;;;6145692;23;20408;-78
2022/12/14 10:26:51;;;;;;;8.02;7.25;;;;;;;;;;6115301;23;20164;-77
2022/12/14 10:29:39;;;;;;;10.05;7.70;;;;;;;;;;6143505;23;20161;-78
2022/12/14 10:32:05;;;;;;;8.77;7.22;;;;;;;;;;6141246;23;20160;-78
2022/12/14 10:34:31;;;;;;;8.95;7.05;;;;;;;;;;6145092;23;20152;-77
2022/12/14 10:37:00;;;;;;;8.68;7.35;;;;;;;;;;6140845;23;20200;-78
2022/12/14 10:39:26;;;;;;;11.45;7.68;;;;;;;;;;6145599;23;20172;-76
2022/12/14 10:41:56;;;;;;;10.43;8.20;;;;;;;;;;6141432;23;20231;-77
2022/12/14 10:44:31;;;;;;;16.92;9.88;;;;;;;;;;6143879;23;20744;-77
2022/12/14 10:47:10;;;;;;;14.10;8.93;;;;;;;;;;6139493;23;20564;-78
2022/12/14 10:49:46;;;;;;;14.70;8.50;;;;;;;;;;6144843;23;20152;-75
2022/12/14 10:52:17;;;;;;;21.00;10.00;;;;;;;;;;6143808;23;20152;-80
2022/12/14 10:54:49;;;;;;;13.95;7.90;;;;;;;;;;6147341;23;20133;-77
2022/12/14 10:57:19;;;;;;;13.88;9.38;;;;;;;;;;6137820;23;20595;-79
2022/12/14 10:59:46;;;;;;;12.27;8.20;;;;;;;;;;6145524;23;20200;-79
2022/12/14 11:02:19;;;;;;;11.98;8.55;;;;;;;;;;6142378;23;20260;-79
2022/12/14 11:04:51;;;;;;;18.33;8.55;;;;;;;;;;6145684;23;20172;-78
2022/12/14 11:07:19;;;;;;;9.68;8.13;;;;;;;;;;6141573;23;20546;-78
2022/12/14 11:09:45;;;;;;;11.85;7.40;;;;;;;;;;6144863;23;20172;-81
2022/12/14 11:12:17;;;;;;;16.80;9.27;;;;;;;;;;6141637;23;20155;-79
2022/12/14 11:15:00;;;;;;;17.40;9.18;;;;;;;;;;6140688;23;20153;-79
2022/12/14 11:17:34;;;;;;;21.60;9.07;;;;;;;;;;6142586;23;20183;-80
2022/12/14 11:20:41;;;;;;;9.32;8.20;;;;;;;;;;6145427;23;20164;-79
2022/12/14 11:23:25;;;;;;;14.45;6.55;;;;;;;;;;6143226;23;20172;-80
2022/12/14 11:25:53;;;;;;;27.52;9.70;;;;;;;;;;6143755;23;20240;-78
2022/12/14 11:28:22;;;;;;;27.40;9.35;;;;;;;;;;6143925;23;20212;-80
2022/12/14 11:31:05;;;;;;;10.80;8.23;;;;;;;;;;6142118;23;20165;-78
2022/12/14 11:33:48;;;;;;;16.95;8.50;;;;;;;;;;6143948;23;20188;-79
2022/12/14 11:36:29;;;;;;;9.07;7.40;;;;;;;;;;6137470;23;20160;-81
2022/12/14 11:38:59;;;;;;;8.90;8.10;;;;;;;;;;6144896;23;20227;-80
2022/12/14 11:41:27;;;;;;;20.08;10.25;;;;;;;;;;6140233;23;20165;-80
2022/12/14 11:44:03;;;;;;;16.13;8.20;;;;;;;;;;6144167;23;20177;-80
2022/12/14 11:46:48;;;;;;;8.60;7.80;;;;;;;;;;6141435;23;20180;-78
2022/12/14 11:49:27;;;;;;;12.55;8.38;;;;;;;;;;6145114;23;20487;-80
2022/12/14 11:51:54;;;;;;;12.18;10.10;;;;;;;;;;6139089;23;20558;-79
2022/12/14 11:54:39;;;;;;;16.83;9.13;;;;;;;;;;6140807;23;20161;-79
2022/12/14 11:57:13;;;;;;;10.60;8.18;;;;;;;;;;6145613;23;20805;-80
2022/12/14 12:00:09;;;;;;;;;;;;;;;;;;;;;
2022/12/14 12:02:41;;;;;;;9.75;8.43;;;;;;;;;;6146017;23;20205;-76
2022/12/14 12:05:10;;;;;;;13.60;8.75;;;;;;;;;;6140571;23;20187;-77
2022/12/14 12:07:42;;;;;;;9.57;7.60;;;;;;;;;;6119316;23;20624;-77
2022/12/14 12:10:14;;;;;;;9.82;7.93;;;;;;;;;;6141746;23;20218;-78
2022/12/14 12:12:57;;;;;;;12.25;8.25;;;;;;;;;;6145567;23;20167;-79
2022/12/14 12:15:32;;;;;;;12.88;7.88;;;;;;;;;;6135157;23;20192;-79
2022/12/14 12:18:07;;;;;;;9.10;7.55;;;;;;;;;;6144887;23;20160;-77
2022/12/14 12:20:36;;;;;;;25.77;8.45;;;;;;;;;;6115427;23;20217;-78
2022/12/14 12:23:06;;;;;;;17.17;8.73;;;;;;;;;;6147222;23;20235;-77
2022/12/14 12:25:34;;;;;;;16.35;8.50;;;;;;;;;;6145028;23;20157;-80
2022/12/14 12:28:03;;;;;;;16.00;7.15;;;;;;;;;;6147829;23;20472;-77
2022/12/14 12:30:32;;;;;;;9.13;7.13;;;;;;;;;;6141580;23;20185;-76
2022/12/14 12:33:04;;;;;;;10.35;7.30;;;;;;;;;;6143624;23;20407;-77
2022/12/14 12:35:35;;;;;;;18.23;8.40;;;;;;;;;;6142859;23;20180;-76
2022/12/14 12:38:16;;;;;;;11.02;7.22;;;;;;;;;;6144184;23;20191;-77
2022/12/14 12:40:51;;;;;;;13.27;8.30;;;;;;;;;;6143087;23;20153;-77
2022/12/14 12:43:27;;;;;;;8.70;7.10;;;;;;;;;;6144349;23;20763;-78
2022/12/14 12:45:56;;;;;;;10.17;7.90;;;;;;;;;;6143052;23;20368;-77
2022/12/14 12:48:31;;;;;;;10.43;7.00;;;;;;;;;;6146162;23;20401;-78
2022/12/14 12:51:01;;;;;;;8.27;7.40;;;;;;;;;;6143052;23;20770;-78
2022/12/14 12:53:31;;;;;;;14.03;8.97;;;;;;;;;;6119293;23;20380;-78
2022/12/14 12:56:06;;;;;;;9.50;8.00;;;;;;;;;;6140502;23;20873;-78
2022/12/14 12:58:35;;;;;;;11.57;7.67;;;;;;;;;;6145989;23;20427;-77
2022/12/14 13:01:04;;;;;;;13.80;10.70;;;;;;;;;;6142516;23;20427;-77
2022/12/14 13:03:38;;;;;;;14.80;9.27;;;;;;;;;;6144680;23;20439;-78
2022/12/14 13:06:11;;;;;;;15.10;8.10;;;;;;;;;;6144321;23;20459;-76
2022/12/14 13:08:39;;;;;;;9.30;8.47;;;;;;;;;;6146595;23;20721;-78
2022/12/14 13:11:13;;;;;;;13.50;7.33;;;;;;;;;;6143998;23;20411;-77
2022/12/14 13:13:42;;;;;;;8.47;7.77;;;;;;;;;;6142144;23;20368;-77
2022/12/14 13:16:18;;;;;;;20.60;8.60;;;;;;;;;;6143301;23;20785;-78
2022/12/14 13:18:50;;;;;;;8.40;7.60;;;;;;;;;;6145452;23;20388;-78
2022/12/14 13:21:16;;;;;;;15.40;8.57;;;;;;;;;;6143015;23;20387;-78
2022/12/14 13:23:42;;;;;;;10.57;9.37;;;;;;;;;;6146095;23;20415;-78
2022/12/14 13:29:47;;;;;;;8.70;7.07;;;;;;;;;;6094313;23;20380;-78
2022/12/14 13:32:28;;;;;;;22.63;12.20;;;;;;;;;;6146396;23;20379;-78
2022/12/14 13:35:11;;;;;;;10.97;8.23;;;;;;;;;;6142806;23;20441;-77
2022/12/14 13:37:52;;;;;;;8.37;7.40;;;;;;;;;;6146282;23;20356;-77
2022/12/14 13:40:24;;;;;;;9.43;8.13;;;;;;;;;;6142278;23;20429;-78
2022/12/14 13:43:09;;;;;;;10.40;8.30;;;;;;;;;;6145910;23;20369;-77
2022/12/14 13:45:38;;;;;;;10.63;7.90;;;;;;;;;;6141985;23;20560;-77
2022/12/14 13:48:09;;;;;;;9.07;8.33;;;;;;;;;;6145494;23;20514;-79
2022/12/14 13:50:37;;;;;;;8.27;7.50;;;;;;;;;;6116049;23;20388;-77
2022/12/14 13:53:15;;;;;;;8.50;7.70;;;;;;;;;;6133410;23;20550;-77
2022/12/14 13:55:52;;;;;;;8.23;7.43;;;;;;;;;;6145068;23;20379;-77
2022/12/14 13:58:27;;;;;;;8.27;7.40;;;;;;;;;;6141618;23;20376;-76
2022/12/14 14:00:53;;;;;;;12.00;7.80;;;;;;;;;;6148215;23;20360;-78
2022/12/14 14:03:37;;;;;;;15.03;11.73;;;;;;;;;;6139336;23;20392;-78
2022/12/14 14:06:07;;;;;;;13.00;7.80;;;;;;;;;;6143702;23;20408;-77
2022/12/14 14:08:35;;;;;;;23.63;10.65;;;;;;;;;;6141514;23;20373;-77
2022/12/14 14:11:23;;;;;;;11.40;8.93;;;;;;;;;;6144176;23;20172;-78
2022/12/14 14:13:49;;;;;;;11.53;8.70;;;;;;;;;;6138846;23;20176;-77
2022/12/14 14:16:22;;;;;;;10.10;8.60;;;;;;;;;;6142715;23;20391;-78
2022/12/14 14:18:52;;;;;;;7.80;7.10;;;;;;;;;;6143994;23;20380;-76
2022/12/14 14:21:22;;;;;;;8.70;7.22;;;;;;;;;;6143724;23;20626;-77
2022/12/14 14:23:56;;;;;;;12.52;8.40;;;;;;;;;;6116446;23;20180;-77
2022/12/14 14:26:24;;;;;;;8.60;7.80;;;;;;;;;;6145712;23;20471;-78
2022/12/14 14:29:04;;;;;;;18.08;8.40;;;;;;;;;;6142862;23;20719;-78
2022/12/14 14:31:48;;;;;;;10.07;8.80;;;;;;;;;;6145609;23;20279;-77
2022/12/14 14:34:17;;;;;;;10.43;7.72;;;;;;;;;;6142491;23;20443;-76
2022/12/14 14:36:44;;;;;;;8.90;7.20;;;;;;;;;;6143923;23;20171;-77
2022/12/14 14:39:29;;;;;;;21.77;8.40;;;;;;;;;;6140746;23;20384;-77
2022/12/14 14:41:55;;;;;;;12.50;8.80;;;;;;;;;;6145694;23;20356;-77
2022/12/14 14:44:24;;;;;;;17.88;9.20;;;;;;;;;;6141193;23;20165;-77
2022/12/14 14:46:50;;;;;;;8.57;7.75;;;;;;;;;;6145687;23;20684;-76
2022/12/14 14:49:35;;;;;;;9.77;8.60;;;;;;;;;;6141206;23;20212;-79
2022/12/14 14:52:20;;;;;;;9.57;8.05;;;;;;;;;;6144986;23;20161;-76
2022/12/14 14:54:46;;;;;;;16.00;6.83;;;;;;;;;;6139589;23;20540;-78
2022/12/14 14:57:31;;;;;;;12.90;8.20;;;;;;;;;;6146308;23;20411;-75
2022/12/14 15:00:01;;;;;;;10.60;7.78;;;;;;;;;;6143913;23;20440;-78
2022/12/14 15:02:29;;;;;;;12.52;8.25;;;;;;;;;;6141397;23;20252;-76
2022/12/14 15:04:55;;;;;;;15.75;9.27;;;;;;;;;;6141347;23;20547;-76
2022/12/14 15:07:29;;;;;;;14.25;8.85;;;;;;;;;;6144730;23;20187;-76
2022/12/14 15:10:05;;;;;;;16.23;9.52;;;;;;;;;;6142647;23;20280;-77
2022/12/14 15:12:37;;;;;;;8.57;7.68;;;;;;;;;;6142991;23;20188;-77
2022/12/14 15:15:05;;;;;;;12.15;7.38;;;;;;;;;;6137624;23;20160;-78